createdAt,value
2018-12-23T00:01:06.873Z,7.80
2018-12-23T00:03:34.400Z,7.85
2018-12-23T00:06:02.823Z,7.72
2018-12-23T00:08:30.075Z,7.63
2018-12-23T00:10:57.399Z,7.56
2018-12-23T00:13:24.892Z,7.67
2018-12-23T00:15:52.427Z,7.66
2018-12-23T00:18:19.950Z,7.65
2018-12-23T00:20:47.611Z,7.56
2018-12-23T00:23:15.101Z,7.47
2018-12-23T00:25:42.374Z,7.45
2018-12-23T00:28:09.653Z,7.45
2018-12-23T00:30:36.945Z,7.42
2018-12-23T00:33:04.223Z,7.44
2018-12-23T00:35:31.494Z,7.46
2018-12-23T00:37:58.765Z,7.41
2018-12-23T00:40:26.046Z,7.44
2018-12-23T00:42:53.305Z,7.47
2018-12-23T00:45:20.620Z,7.49
2018-12-23T00:47:47.896Z,7.50
2018-12-23T00:50:15.176Z,7.49
2018-12-23T00:52:43.567Z,7.43
2018-12-23T00:55:10.829Z,7.53
2018-12-23T00:57:38.093Z,7.39
2018-12-23T01:00:06.629Z,7.46
2018-12-23T01:02:34.087Z,7.36
2018-12-23T01:05:01.341Z,7.32
2018-12-23T01:07:28.591Z,7.37
2018-12-23T01:09:55.849Z,7.38
2018-12-23T01:12:23.583Z,7.42
2018-12-23T01:14:50.826Z,7.46
2018-12-23T01:17:18.080Z,7.53
2018-12-23T01:19:45.331Z,7.55
2018-12-23T01:22:12.576Z,7.50
2018-12-23T01:24:39.812Z,7.51
2018-12-23T01:27:07.082Z,7.61
2018-12-23T01:29:34.436Z,7.52
2018-12-23T01:32:01.804Z,7.55
2018-12-23T01:34:36.903Z,7.53
2018-12-23T01:36:58.323Z,7.53
2018-12-23T01:39:25.806Z,7.56
2018-12-23T01:41:53.088Z,7.56
2018-12-23T01:44:20.303Z,7.60
2018-12-23T01:46:47.592Z,7.57
2018-12-23T01:49:14.829Z,7.61
2018-12-23T01:51:42.114Z,7.47
2018-12-23T01:54:09.633Z,7.61
2018-12-23T01:56:36.895Z,7.58
2018-12-23T01:59:04.159Z,7.65
2018-12-23T02:01:31.440Z,7.63
2018-12-23T02:03:58.666Z,7.62
2018-12-23T02:06:25.985Z,7.68
2018-12-23T02:08:53.354Z,7.64
2018-12-23T02:11:20.717Z,7.73
2018-12-23T02:13:48.074Z,7.63
2018-12-23T02:16:15.325Z,7.65
2018-12-23T02:18:42.613Z,7.65
2018-12-23T02:21:09.952Z,7.66
2018-12-23T02:23:37.207Z,7.67
2018-12-23T02:26:04.457Z,7.66
2018-12-23T02:28:31.716Z,7.69
2018-12-23T02:30:59.298Z,7.70
2018-12-23T02:33:26.550Z,7.77
2018-12-23T02:35:55.769Z,7.73
2018-12-23T02:38:23.117Z,7.78
2018-12-23T02:40:50.349Z,7.70
2018-12-23T02:43:18.034Z,7.66
2018-12-23T02:45:45.267Z,7.72
2018-12-23T02:48:12.503Z,7.72
2018-12-23T02:50:39.761Z,7.70
2018-12-23T02:53:07.091Z,7.77
2018-12-23T02:55:34.332Z,7.79
2018-12-23T02:58:01.756Z,7.78
2018-12-23T03:00:29.006Z,7.68
2018-12-23T03:02:56.256Z,7.71
2018-12-23T03:05:23.517Z,7.73
2018-12-23T03:07:50.793Z,7.76
2018-12-23T03:10:18.042Z,7.77
2018-12-23T03:12:45.317Z,7.74
2018-12-23T03:15:12.712Z,7.80
2018-12-23T03:17:40.049Z,7.71
2018-12-23T03:20:07.422Z,7.71
2018-12-23T03:22:34.659Z,7.71
2018-12-23T03:25:01.952Z,7.85
2018-12-23T03:27:29.209Z,7.71
2018-12-23T03:29:56.466Z,7.76
2018-12-23T03:32:23.712Z,7.73
2018-12-23T03:34:51.029Z,7.71
2018-12-23T03:37:18.262Z,7.65
2018-12-23T03:39:45.517Z,7.73
2018-12-23T03:42:12.762Z,7.75
2018-12-23T03:44:40.000Z,7.75
2018-12-23T03:47:07.222Z,7.66
2018-12-23T03:49:34.480Z,7.67
2018-12-23T03:52:01.785Z,7.69
2018-12-23T03:54:29.037Z,7.65
2018-12-23T03:56:56.269Z,7.71
2018-12-23T03:59:23.554Z,7.68
2018-12-23T04:01:50.809Z,7.75
2018-12-23T04:04:18.049Z,7.80
2018-12-23T04:06:45.291Z,7.82
2018-12-23T04:09:12.545Z,7.82
2018-12-23T04:11:39.880Z,7.75
2018-12-23T04:14:07.131Z,7.70
2018-12-23T04:16:34.344Z,7.83
2018-12-23T04:19:01.591Z,7.81
2018-12-23T04:21:28.836Z,7.73
2018-12-23T04:23:56.199Z,7.67
2018-12-23T04:26:23.445Z,7.67
2018-12-23T04:28:50.668Z,7.68
2018-12-23T04:31:17.921Z,7.76
2018-12-23T04:33:45.147Z,7.69
2018-12-23T04:36:12.393Z,7.76
2018-12-23T04:38:39.640Z,7.60
2018-12-23T04:41:06.877Z,7.87
2018-12-23T04:43:34.165Z,7.72
2018-12-23T04:46:01.402Z,7.72
2018-12-23T04:48:28.619Z,7.71
2018-12-23T04:50:55.977Z,7.74
2018-12-23T04:53:23.204Z,7.83
2018-12-23T04:55:50.463Z,7.87
2018-12-23T04:58:17.686Z,7.79
2018-12-23T05:00:44.934Z,7.80
2018-12-23T05:03:12.157Z,7.85
2018-12-23T05:05:39.391Z,7.82
2018-12-23T05:08:06.597Z,7.85
2018-12-23T05:10:33.848Z,7.83
2018-12-23T05:13:01.092Z,7.74
2018-12-23T05:15:28.358Z,7.78
2018-12-23T05:17:55.582Z,7.86
2018-12-23T05:20:22.833Z,7.70
2018-12-23T05:22:50.084Z,7.76
2018-12-23T05:25:17.318Z,7.71
2018-12-23T05:27:44.527Z,7.69
2018-12-23T05:30:11.778Z,7.72
2018-12-23T05:32:39.001Z,7.74
2018-12-23T05:35:06.267Z,7.73
2018-12-23T05:37:33.468Z,7.68
2018-12-23T05:40:00.657Z,7.71
2018-12-23T05:42:27.936Z,7.76
2018-12-23T05:44:55.225Z,7.78
2018-12-23T05:47:22.806Z,7.78
2018-12-23T05:49:50.054Z,7.74
2018-12-23T05:52:17.268Z,7.81
2018-12-23T05:54:44.541Z,7.80
2018-12-23T05:57:11.789Z,7.81
2018-12-23T05:59:39.045Z,7.75
2018-12-23T06:02:06.352Z,7.71
2018-12-23T06:04:33.687Z,7.70
2018-12-23T06:07:01.294Z,7.74
2018-12-23T06:09:28.628Z,7.70
2018-12-23T06:11:55.901Z,7.72
2018-12-23T06:14:23.178Z,7.71
2018-12-23T06:16:50.474Z,7.69
2018-12-23T06:19:17.738Z,7.79
2018-12-23T06:21:45.006Z,7.81
2018-12-23T06:24:12.228Z,7.79
2018-12-23T06:26:39.454Z,7.75
2018-12-23T06:29:06.703Z,7.76
2018-12-23T06:31:34.081Z,7.69
2018-12-23T06:34:01.306Z,7.77
2018-12-23T06:36:28.553Z,7.65
2018-12-23T06:38:55.862Z,7.68
2018-12-23T06:41:23.134Z,7.67
2018-12-23T06:43:50.409Z,7.70
2018-12-23T06:46:17.647Z,7.72
2018-12-23T06:48:44.866Z,7.75
2018-12-23T06:51:12.127Z,7.77
2018-12-23T06:53:39.366Z,7.75
2018-12-23T06:56:06.573Z,7.75
2018-12-23T06:58:33.833Z,7.77
2018-12-23T07:01:01.261Z,7.85
2018-12-23T07:03:28.477Z,7.75
2018-12-23T07:05:55.755Z,7.77
2018-12-23T07:08:23.039Z,7.79
2018-12-23T07:10:50.265Z,7.77
2018-12-23T07:13:17.500Z,7.76
2018-12-23T07:15:44.725Z,7.81
2018-12-23T07:18:11.966Z,7.83
2018-12-23T07:20:39.211Z,7.90
2018-12-23T07:23:06.456Z,7.83
2018-12-23T07:25:33.681Z,7.88
2018-12-23T07:28:00.952Z,7.85
2018-12-23T07:30:28.189Z,7.74
2018-12-23T07:32:55.447Z,7.79
2018-12-23T07:35:22.734Z,7.85
2018-12-23T07:37:49.999Z,7.93
2018-12-23T07:40:17.266Z,7.81
2018-12-23T07:42:44.564Z,7.81
2018-12-23T07:45:11.818Z,7.77
2018-12-23T07:47:39.104Z,7.84
2018-12-23T07:50:06.334Z,7.82
2018-12-23T07:52:33.578Z,7.78
2018-12-23T07:55:00.856Z,7.90
2018-12-23T07:57:28.514Z,7.86
2018-12-23T07:59:55.854Z,7.89
2018-12-23T08:02:23.101Z,7.88
2018-12-23T08:04:50.326Z,7.75
2018-12-23T08:07:17.532Z,7.89
2018-12-23T08:09:44.801Z,7.84
2018-12-23T08:12:12.053Z,7.81
2018-12-23T08:14:39.381Z,7.89
2018-12-23T08:17:06.627Z,7.94
2018-12-23T08:19:33.873Z,7.94
2018-12-23T08:22:01.098Z,7.91
2018-12-23T08:24:28.353Z,7.86
2018-12-23T08:26:55.600Z,7.89
2018-12-23T08:29:22.900Z,7.99
2018-12-23T08:31:50.300Z,7.95
2018-12-23T08:34:17.533Z,7.92
2018-12-23T08:36:44.775Z,7.87
2018-12-23T08:39:12.011Z,7.79
2018-12-23T08:41:39.352Z,7.86
2018-12-23T08:44:06.699Z,7.87
2018-12-23T08:46:39.103Z,7.95
2018-12-23T08:49:03.269Z,7.88
2018-12-23T08:51:30.538Z,7.93
2018-12-23T08:53:57.804Z,7.97
2018-12-23T08:56:25.029Z,7.96
2018-12-23T08:58:52.353Z,7.90
2018-12-23T09:01:19.612Z,7.98
2018-12-23T09:03:46.906Z,8.04
2018-12-23T09:06:14.161Z,8.03
2018-12-23T09:08:41.450Z,7.99
2018-12-23T09:11:08.746Z,8.08
2018-12-23T09:13:36.036Z,7.99
2018-12-23T09:16:03.499Z,8.04
2018-12-23T09:18:30.732Z,7.99
2018-12-23T09:20:57.962Z,8.05
2018-12-23T09:23:25.211Z,8.14
2018-12-23T09:25:52.454Z,8.10
2018-12-23T09:28:19.741Z,8.13
2018-12-23T09:30:46.990Z,8.17
2018-12-23T09:33:14.221Z,8.18
2018-12-23T09:35:41.522Z,8.13
2018-12-23T09:38:09.250Z,8.09
2018-12-23T09:40:36.498Z,8.14
2018-12-23T09:43:03.839Z,8.15
2018-12-23T09:45:31.137Z,8.15
2018-12-23T09:47:58.356Z,8.25
2018-12-23T09:50:25.630Z,8.27
2018-12-23T09:52:52.960Z,8.43
2018-12-23T09:55:20.324Z,8.23
2018-12-23T09:57:47.570Z,8.32
2018-12-23T10:00:14.886Z,8.22
2018-12-23T10:02:42.109Z,8.25
2018-12-23T10:05:09.477Z,8.34
2018-12-23T10:07:38.056Z,8.28
2018-12-23T10:10:05.856Z,8.30
2018-12-23T10:12:33.125Z,8.35
2018-12-23T10:15:00.414Z,8.36
2018-12-23T10:17:27.692Z,8.39
2018-12-23T10:19:54.947Z,8.25
2018-12-23T10:22:22.181Z,8.26
2018-12-23T10:24:49.447Z,8.32
2018-12-23T10:27:16.703Z,8.35
2018-12-23T10:29:44.009Z,8.32
2018-12-23T10:32:11.222Z,8.29
2018-12-23T10:34:38.558Z,8.38
2018-12-23T10:37:05.814Z,8.33
2018-12-23T10:39:33.067Z,8.31
2018-12-23T10:42:00.348Z,8.32
2018-12-23T10:44:33.854Z,8.36
2018-12-23T10:47:01.957Z,8.41
2018-12-23T10:49:29.446Z,8.26
2018-12-23T10:51:56.799Z,8.35
2018-12-23T10:54:24.073Z,8.32
2018-12-23T10:56:51.353Z,8.35
2018-12-23T10:59:18.566Z,8.28
2018-12-23T11:01:45.847Z,8.31
2018-12-23T11:04:13.064Z,8.27
2018-12-23T11:06:40.336Z,8.24
2018-12-23T11:09:07.536Z,8.22
2018-12-23T11:11:34.795Z,8.24
2018-12-23T11:14:02.040Z,8.24
2018-12-23T11:16:29.291Z,8.31
2018-12-23T11:18:56.552Z,8.38
2018-12-23T11:21:23.805Z,8.34
2018-12-23T11:23:52.019Z,8.32
2018-12-23T11:26:19.359Z,8.36
2018-12-23T11:28:46.576Z,8.39
2018-12-23T11:31:13.816Z,8.41
2018-12-23T11:33:41.055Z,8.46
2018-12-23T11:36:08.461Z,8.47
2018-12-23T11:38:35.909Z,8.48
2018-12-23T11:41:03.460Z,8.45
2018-12-23T11:43:30.689Z,8.51
2018-12-23T11:45:57.913Z,8.50
2018-12-23T11:48:25.149Z,8.47
2018-12-23T11:50:52.425Z,8.48
2018-12-23T11:53:19.645Z,8.38
2018-12-23T11:55:46.885Z,8.40
2018-12-23T11:58:14.099Z,8.43
2018-12-23T12:00:41.357Z,8.43
2018-12-23T12:03:08.673Z,8.43
2018-12-23T12:05:36.519Z,8.29
2018-12-23T12:08:03.889Z,8.35
2018-12-23T12:10:31.153Z,8.35
2018-12-23T12:12:58.367Z,8.38
2018-12-23T12:15:25.671Z,8.35
2018-12-23T12:17:53.444Z,8.34
2018-12-23T12:20:20.768Z,8.27
2018-12-23T12:22:48.061Z,8.31
2018-12-23T12:25:15.378Z,8.33
2018-12-23T12:27:42.585Z,8.27
2018-12-23T12:30:09.853Z,8.21
2018-12-23T12:32:37.105Z,8.38
2018-12-23T12:35:04.480Z,8.28
2018-12-23T12:37:31.758Z,8.28
2018-12-23T12:39:58.984Z,8.41
2018-12-23T12:42:26.253Z,8.33
2018-12-23T12:44:53.443Z,8.34
2018-12-23T12:47:20.708Z,8.33
2018-12-23T12:49:47.964Z,8.29
2018-12-23T12:52:15.192Z,8.35
2018-12-23T12:54:42.402Z,8.38
2018-12-23T12:57:09.651Z,8.27
2018-12-23T12:59:36.861Z,8.23
2018-12-23T13:02:04.266Z,8.13
2018-12-23T13:04:31.509Z,8.20
2018-12-23T13:06:58.805Z,8.26
2018-12-23T13:09:26.047Z,8.21
2018-12-23T13:11:53.299Z,8.41
2018-12-23T13:14:20.510Z,8.39
2018-12-23T13:16:47.758Z,8.34
2018-12-23T13:19:15.002Z,8.26
2018-12-23T13:21:42.224Z,8.18
2018-12-23T13:24:09.492Z,8.26
2018-12-23T13:26:36.741Z,8.16
2018-12-23T13:29:04.067Z,8.22
2018-12-23T13:31:31.304Z,8.20
2018-12-23T13:33:58.509Z,8.14
2018-12-23T13:36:25.787Z,8.17
2018-12-23T13:38:53.004Z,8.16
2018-12-23T13:41:31.936Z,8.27
2018-12-23T13:44:46.605Z,8.31
2018-12-23T13:47:33.796Z,7.94
2018-12-23T13:53:16.868Z,8.26
2018-12-23T13:56:13.313Z,8.16
2018-12-23T13:58:48.718Z,8.06
2018-12-23T14:01:33.505Z,8.11
2018-12-23T14:04:39.419Z,8.02
2018-12-23T14:07:26.852Z,7.98
2018-12-23T14:10:22.773Z,7.95
2018-12-23T14:12:50.364Z,7.79
2018-12-23T14:15:17.585Z,7.86
2018-12-23T14:17:44.946Z,7.82
2018-12-23T14:20:12.254Z,7.83
2018-12-23T14:22:39.516Z,7.84
2018-12-23T14:25:06.744Z,7.75
2018-12-23T14:27:34.018Z,7.76
2018-12-23T14:30:01.488Z,7.72
2018-12-23T14:32:28.776Z,7.67
2018-12-23T14:34:56.001Z,7.62
2018-12-23T14:37:23.256Z,7.76
2018-12-23T14:40:30.638Z,7.85
2018-12-23T14:42:58.180Z,7.58
2018-12-23T14:45:25.551Z,7.68
2018-12-23T14:47:52.991Z,7.66
2018-12-23T14:50:20.413Z,7.62
2018-12-23T14:52:47.809Z,7.52
2018-12-23T14:55:15.200Z,7.54
2018-12-23T14:57:42.631Z,7.48
2018-12-23T15:00:10.233Z,7.39
2018-12-23T15:02:37.643Z,7.32
2018-12-23T15:05:05.269Z,7.41
2018-12-23T15:07:32.680Z,7.47
2018-12-23T15:10:00.162Z,7.36
2018-12-23T15:12:27.576Z,7.36
2018-12-23T15:14:54.981Z,7.34
2018-12-23T15:17:22.467Z,7.26
2018-12-23T15:19:49.906Z,7.28
2018-12-23T15:22:17.394Z,7.16
2018-12-23T15:24:44.836Z,7.21
2018-12-23T15:27:12.219Z,7.18
2018-12-23T15:29:39.636Z,7.05
2018-12-23T15:32:07.024Z,7.00
2018-12-23T15:34:34.446Z,7.14
2018-12-23T15:37:01.843Z,7.14
2018-12-23T15:39:29.243Z,7.10
2018-12-23T15:41:56.643Z,7.08
2018-12-23T15:44:24.179Z,7.10
2018-12-23T15:46:51.657Z,7.03
2018-12-23T15:49:19.063Z,7.03
2018-12-23T15:51:46.436Z,7.03
2018-12-23T15:54:13.849Z,7.00
2018-12-23T15:56:41.237Z,6.99
2018-12-23T15:59:08.642Z,7.05
2018-12-23T16:01:36.044Z,7.06
2018-12-23T16:04:03.508Z,7.10
2018-12-23T16:06:30.906Z,7.05
2018-12-23T16:08:58.324Z,6.85
2018-12-23T16:11:25.731Z,6.94
2018-12-23T16:13:53.143Z,7.00
2018-12-23T16:16:20.535Z,7.06
2018-12-23T16:18:47.966Z,7.13
2018-12-23T16:21:18.570Z,7.06
2018-12-23T16:23:46.130Z,7.13
2018-12-23T16:26:13.505Z,7.09
2018-12-23T16:28:40.909Z,7.03
2018-12-23T16:31:08.294Z,7.00
2018-12-23T16:33:35.733Z,7.06
2018-12-23T16:36:03.110Z,7.09
2018-12-23T16:38:30.591Z,7.08
2018-12-23T16:40:57.985Z,7.12
2018-12-23T16:43:25.406Z,7.02
2018-12-23T16:45:52.815Z,7.04
2018-12-23T16:48:20.226Z,7.08
2018-12-23T16:50:47.778Z,7.32
2018-12-23T16:53:15.152Z,7.16
2018-12-23T16:55:42.564Z,7.11
2018-12-23T16:58:09.998Z,7.07
2018-12-23T17:00:37.412Z,7.03
2018-12-23T17:03:04.788Z,7.03
2018-12-23T17:05:32.201Z,6.91
2018-12-23T17:07:59.587Z,6.79
2018-12-23T17:10:26.996Z,6.80
2018-12-23T17:12:54.410Z,6.88
2018-12-23T17:15:22.043Z,6.82
2018-12-23T17:17:49.540Z,6.89
2018-12-23T17:20:16.988Z,6.86
2018-12-23T17:22:44.384Z,6.89
2018-12-23T17:25:11.838Z,7.06
2018-12-23T17:27:39.204Z,6.86
2018-12-23T17:30:07.724Z,6.82
2018-12-23T17:32:35.108Z,6.86
2018-12-23T17:35:02.507Z,6.96
2018-12-23T17:37:29.860Z,6.97
2018-12-23T17:39:57.280Z,6.95
2018-12-23T17:42:24.683Z,6.96
2018-12-23T17:44:52.158Z,6.95
2018-12-23T17:47:19.536Z,6.95
2018-12-23T17:49:46.934Z,6.95
2018-12-23T17:52:14.561Z,7.01
2018-12-23T17:54:41.954Z,6.74
2018-12-23T17:57:09.378Z,6.95
2018-12-23T17:59:36.774Z,6.78
2018-12-23T18:02:04.603Z,6.83
2018-12-23T18:04:31.981Z,6.82
2018-12-23T18:07:03.898Z,6.67
2018-12-23T18:09:30.559Z,6.72
2018-12-23T18:11:58.011Z,6.47
2018-12-23T18:14:25.429Z,6.57
2018-12-23T18:16:52.832Z,6.58
2018-12-23T18:19:20.243Z,6.72
2018-12-23T18:21:47.649Z,6.80
2018-12-23T18:24:15.030Z,6.51
2018-12-23T18:26:45.201Z,6.47
2018-12-23T18:29:11.759Z,6.57
2018-12-23T18:31:39.275Z,6.57
2018-12-23T18:34:06.805Z,6.54
2018-12-23T18:36:34.340Z,6.57
2018-12-23T18:39:01.749Z,6.67
2018-12-23T18:41:29.272Z,6.69
2018-12-23T18:43:57.376Z,6.64
2018-12-23T18:46:26.471Z,6.76
2018-12-23T18:48:55.387Z,6.79
2018-12-23T18:51:26.478Z,6.55
2018-12-23T18:53:55.142Z,6.60
2018-12-23T18:56:34.133Z,6.61
2018-12-23T18:59:01.619Z,6.50
2018-12-23T19:01:29.054Z,6.53
2018-12-23T19:03:56.467Z,6.44
2018-12-23T19:06:24.046Z,6.46
2018-12-23T19:08:59.685Z,6.42
2018-12-23T19:11:51.002Z,6.48
2018-12-23T19:14:58.977Z,6.52
2018-12-23T19:18:06.474Z,6.46
2018-12-23T19:21:06.544Z,6.46
2018-12-23T19:24:14.173Z,6.49
2018-12-23T19:27:38.459Z,6.50
2018-12-23T19:30:24.504Z,6.43
2018-12-23T19:33:42.491Z,6.51
2018-12-23T19:36:54.198Z,6.55
2018-12-23T19:39:59.024Z,6.49
2018-12-23T19:43:11.913Z,6.47
2018-12-23T19:46:19.365Z,6.54
2018-12-23T19:49:30.319Z,6.52
2018-12-23T19:52:49.432Z,6.57
2018-12-23T19:55:57.480Z,6.55
2018-12-23T19:58:59.996Z,6.47
2018-12-23T20:02:19.859Z,6.46
2018-12-23T20:05:35.367Z,6.44
2018-12-23T20:08:34.905Z,6.42
2018-12-23T20:11:43.819Z,6.41
2018-12-23T20:14:40.198Z,6.36
2018-12-23T20:17:44.207Z,6.44
2018-12-23T20:21:05.096Z,6.41
2018-12-23T20:24:14.475Z,6.45
2018-12-23T20:27:16.160Z,6.41
2018-12-23T20:30:29.079Z,6.39
2018-12-23T20:33:44.202Z,6.42
2018-12-23T20:37:11.900Z,6.33
2018-12-23T20:40:24.106Z,6.41
2018-12-23T20:43:26.260Z,6.57
2018-12-23T20:46:32.264Z,6.44
2018-12-23T20:49:40.733Z,6.49
2018-12-23T20:52:52.847Z,6.40
2018-12-23T20:55:56.820Z,6.25
2018-12-23T20:58:50.389Z,6.28
2018-12-23T21:01:55.943Z,6.35
2018-12-23T21:05:06.800Z,6.21
2018-12-23T21:08:21.257Z,6.30
2018-12-23T21:11:16.091Z,6.31
2018-12-23T21:14:26.979Z,6.29
2018-12-23T21:17:54.298Z,6.28
2018-12-23T21:20:59.083Z,6.31
2018-12-23T21:24:09.779Z,6.28
2018-12-23T21:27:04.357Z,6.36
2018-12-23T21:30:24.523Z,6.17
2018-12-23T21:33:41.830Z,6.08
2018-12-23T21:36:53.818Z,6.23
2018-12-23T21:39:54.652Z,6.11
2018-12-23T21:42:39.734Z,6.10
2018-12-23T21:45:44.609Z,6.19
2018-12-23T21:48:53.584Z,6.21
2018-12-23T21:52:23.954Z,6.13
2018-12-23T21:55:32.064Z,5.98
2018-12-23T21:59:02.816Z,5.95
2018-12-23T22:02:05.050Z,5.83
2018-12-23T22:05:24.019Z,5.75
2018-12-23T22:08:35.997Z,5.72
2018-12-23T22:11:40.719Z,5.80
2018-12-23T22:14:08.259Z,5.82
2018-12-23T22:16:35.914Z,5.67
2018-12-23T22:19:03.283Z,5.60
2018-12-23T22:21:30.706Z,5.68
2018-12-23T22:23:58.085Z,5.71
2018-12-23T22:26:25.515Z,5.69
2018-12-23T22:28:53.010Z,5.75
2018-12-23T22:31:20.449Z,5.71
2018-12-23T22:33:47.838Z,5.73
2018-12-23T22:36:15.347Z,5.73
2018-12-23T22:38:42.737Z,5.66
2018-12-23T22:41:12.967Z,5.58
2018-12-23T22:43:40.379Z,5.65
2018-12-23T22:46:07.767Z,5.61
2018-12-23T22:48:35.558Z,5.58
2018-12-23T22:51:02.974Z,5.47
2018-12-23T22:53:30.555Z,5.47
2018-12-23T22:55:58.045Z,5.55
2018-12-23T22:58:25.419Z,5.62
2018-12-23T23:00:52.858Z,5.58
2018-12-23T23:03:20.360Z,5.63
2018-12-23T23:05:47.795Z,5.57
2018-12-23T23:08:15.197Z,5.61
2018-12-23T23:10:42.615Z,5.57
2018-12-23T23:13:18.285Z,5.72
2018-12-23T23:15:39.538Z,5.78
2018-12-23T23:18:06.985Z,5.57
2018-12-23T23:20:34.366Z,5.66
2018-12-23T23:23:01.820Z,5.57
2018-12-23T23:25:30.327Z,5.56
2018-12-23T23:27:57.825Z,5.57
2018-12-23T23:30:25.245Z,5.59
2018-12-23T23:32:52.641Z,5.60
2018-12-23T23:35:20.031Z,5.62
2018-12-23T23:37:47.544Z,5.58
2018-12-23T23:40:14.946Z,5.58
2018-12-23T23:42:42.362Z,5.53
2018-12-23T23:45:09.752Z,5.52
2018-12-23T23:47:37.190Z,5.49
2018-12-23T23:50:05.151Z,5.58
2018-12-23T23:52:32.583Z,5.49
2018-12-23T23:54:59.961Z,5.50
2018-12-23T23:57:27.415Z,5.34
2018-12-23T23:59:54.784Z,5.49
